Cercs-Sant Jordi





Hora UTC 16:20
Temperatura 24.1 ºC
Humedad 51.0 %
Presión 1022.5 hPa
Pluja 0.0 mm
Velocidad viento 5.5 km/h
Dirección viento SSW
Radiación solar 216.8 W/m²

Datos diarios 2019-09-20



Hora UTC (invierno +1h; verano +2h)
Temperatura (ºC) Humedad (%) Presión (hPa) Velocidad viento (km/h) Precipitación (mm) Radiación solar (W/m²)
Hora UTC Aire Humedad Presión Vel. Dir. Vel. Max Dir. Intent. máx 5 min. Rad. Sol.
00:05 15.6 85.0 1032.7 3.9 NW 3.9 NNW 0.0 0.1
00:10 15.4 85.3 1032.8 4.3 WNW 14.2 WNW 0.0 0.1
00:15 15.5 84.1 1032.8 2.9 NNW 8.8 WNW 0.0 0.2
00:20 15.3 86.5 1032.7 3.5 SW 8.8 W 0.0 0.1
00:25 15.1 87.8 1032.8 1.5 WSW 6.1 WSW 0.0 0.1
00:30 15.2 86.9 1032.8 1.0 NNE 6.1 ENE 0.0 0.1
00:35 15.3 86.4 1032.8 0.4 N 6.1 NW 0.0 0.1
00:40 15.2 87.9 1032.8 2.1 ENE 6.1 E 0.0 0.1
00:45 14.9 90.3 1032.8 0.7 W 3.4 SW 0.0 0.1
00:50 14.9 89.3 1032.8 2.0 N 11.5 NNW 0.0 0.1
00:55 15.1 86.3 1032.7 3.0 NNE 8.8 NNW 0.0 0.1
01:00 15.2 88.6 1032.6 1.4 WNW 6.1 WNW 0.0 0.1
01:05 15.1 89.9 1032.5 0.0 NNE 0.0 W 0.0 0.1
01:10 15.1 89.0 1032.3 0.5 NE 6.1 N 0.0 0.1
01:15 15.1 86.6 1032.3 2.5 NNE 6.1 NNE 0.0 0.1
01:20 15.0 90.6 1032.4 1.4 WSW 6.1 S 0.0 0.1
01:25 14.9 90.7 1032.3 0.1 NNW 3.4 NW 0.0 0.2
01:30 15.0 87.5 1032.0 1.1 NE 8.8 NE 0.0 0.1
01:35 15.0 90.4 1031.9 0.5 SW 3.4 SW 0.0 0.1
01:40 14.8 89.5 1031.8 2.3 N 11.5 NNW 0.0 0.1
01:45 14.9 86.6 1031.6 2.9 N 11.5 0.0 0.1
01:50 15.0 86.6 1031.7 5.1 NNW 11.5 NNW 0.0 0.1
01:55 15.0 86.4 1031.6 4.5 NNW 14.2 NNE 0.0 0.2
02:00 15.0 86.2 1031.6 4.6 N 8.8 NE 0.0 0.1
02:05 15.1 86.4 1031.6 1.9 NNW 6.1 WNW 0.0 0.1
02:10 15.1 87.5 1031.5 0.2 WSW 3.4 WSW 0.0 0.2
02:15 15.1 89.2 1031.5 0.1 SW 3.4 WSW 0.0 0.1
02:20 15.1 88.7 1031.4 0.6 WSW 6.1 ENE 0.0 0.1
02:25 15.2 87.0 1031.3 3.4 W 8.8 W 0.0 0.1
02:30 15.2 88.3 1031.2 0.7 NW 6.1 ENE 0.0 0.1
02:35 15.1 86.0 1031.1 3.6 N 11.5 N 0.0 0.2
02:40 15.1 86.0 1030.7 3.6 N 11.5 N 0.0 0.1
02:45 14.9 87.0 1030.6 6.1 NNW 14.2 NW 0.0 0.1
02:50 14.9 89.1 1030.7 5.2 WNW 11.5 NW 0.0 0.1
02:55 15.0 87.3 1030.6 3.8 NW 11.5 NW 0.0 0.1
03:00 15.0 89.5 1030.3 1.0 WNW 6.1 WNW 0.0 0.1
03:05 15.0 89.0 1030.1 4.0 NW 16.9 NE 0.0 0.1
03:10 15.1 87.0 1030.1 3.9 NNW 16.9 W 0.0 0.1
03:15 15.3 84.4 1030.1 5.5 NNW 14.2 NW 0.0 0.1
03:20 15.2 84.5 1029.8 3.7 NW 11.5 NW 0.0 0.1
03:25 15.3 85.0 1029.8 3.6 WNW 6.1 WNW 0.0 0.1
03:30 15.2 86.4 1029.9 3.4 WNW 11.5 NNW 0.0 0.2
03:35 15.3 84.1 1029.8 1.9 NNE 8.8 ENE 0.0 0.1
03:40 15.1 85.1 1029.7 3.7 NNW 11.5 NNE 0.0 0.2
03:45 15.0 87.7 1029.8 0.9 WSW 6.1 W 0.0 0.1
03:50 14.8 89.2 1029.7 0.9 N 6.1 NNE 0.0 0.1
03:55 14.8 88.3 1029.7 3.2 NNW 11.5 SE 0.0 0.1
04:00 14.7 88.3 1029.5 1.4 WNW 8.8 NW 0.0 0.1
04:05 14.6 89.1 1029.4 0.9 N 6.1 NNE 0.0 0.1
04:10 14.7 87.5 1029.2 2.8 NNE 8.8 NNE 0.0 0.1
04:15 14.7 87.6 1029.3 2.8 NW 8.8 WNW 0.0 0.2
04:20 14.6 89.5 1029.4 1.7 NW 6.1 NW 0.0 0.2
04:25 14.5 88.9 1029.2 2.2 NNE 8.8 N 0.0 0.1
04:30 14.7 87.5 1029.3 3.4 NNW 11.5 NE 0.0 0.1
04:35 14.6 88.8 1029.6 2.3 NW 11.5 NNW 0.0 0.1
04:40 14.7 88.6 1029.6 2.0 WNW 6.1 NNW 0.0 0.1
04:45 14.7 88.9 1029.7 1.2 WNW 6.1 W 0.0 0.2
04:50 14.8 88.4 1029.8 0.1 SSW 3.4 SSW 0.0 0.2
04:55 14.9 87.4 1029.7 2.0 NNE 8.8 ENE 0.0 0.1
05:00 15.1 85.9 1029.7 2.2 NNE 6.1 NNE 0.0 0.1
05:05 15.0 86.4 1029.8 1.6 N 8.8 NNW 0.0 0.2
05:10 14.9 86.7 1029.8 0.8 N 6.1 NE 0.0 0.1
05:15 14.8 87.2 1029.8 2.2 N 8.8 NNW 0.0 0.2
05:20 14.7 88.3 1029.8 2.6 WNW 8.8 NW 0.0 0.2
05:25 14.6 89.8 1030.1 0.6 WSW 3.4 WSW 0.0 0.7
05:30 14.5 90.8 1030.4 1.2 NNE 6.1 NNE 0.0 1.6
05:35 14.6 89.9 1030.4 0.4 NE 3.4 NNE 0.0 2.9
05:40 14.7 89.2 1030.3 0.1 ENE 3.4 ENE 0.0 4.7
05:45 14.6 90.0 1030.2 2.4 NW 8.8 N 0.0 7.3
05:50 14.5 90.6 1030.4 0.7 W 6.1 NW 0.0 11.6
05:55 14.5 91.5 1030.4 0.1 WSW 3.4 WSW 0.0 17.5
06:00 14.5 91.6 1030.4 0.0 NNE 0.0 W 0.0 26.3
06:05 14.7 89.3 1030.7 2.3 NNE 8.8 NNE 0.0 36.5
06:10 15.0 88.4 1030.9 0.0 N 3.4 N 0.0 46.8
06:15 15.1 87.1 1030.8 2.8 NNE 8.8 NNE 0.0 51.4
06:20 14.9 86.9 1030.8 3.7 NNE 8.8 NE 0.0 55.1
06:25 15.0 89.1 1031.1 1.4 WSW 6.1 NNW 0.0 63.8
06:30 15.1 90.6 1031.4 1.4 WSW 6.1 WSW 0.0 70.9
06:35 15.2 87.8 1031.5 1.2 NNE 8.8 NNE 0.0 72.3
06:40 15.5 88.1 1031.7 0.4 SW 3.4 NNE 0.0 74.5
06:45 15.6 90.4 1031.9 0.9 SW 6.1 WSW 0.0 70.6
06:50 15.6 89.2 1031.9 0.0 NNE 0.0 W 0.0 88.8
06:55 15.7 88.6 1031.8 1.8 S 6.1 S 0.0 63.9
07:00 15.6 88.4 1032.1 1.4 SSW 6.1 SSW 0.0 61.9
07:05 15.7 88.1 1032.6 0.5 SSW 3.4 SSW 0.0 65.6
07:10 15.9 88.2 1033.0 0.5 NE 6.1 NE 0.0 71.8
07:15 16.0 85.1 1033.1 2.7 NE 8.8 NNE 0.0 72.8
07:20 15.9 84.8 1033.3 3.3 NE 8.8 N 0.0 94.6
07:25 16.1 84.5 1033.5 3.3 NE 6.1 ENE 0.0 87.4
07:30 16.0 84.6 1033.7 2.0 NE 6.1 NE 0.0 116.4
07:35 16.3 83.9 1033.9 2.6 ENE 6.1 NE 0.0 122.5
07:40 16.4 83.4 1034.0 3.0 ENE 6.1 E 0.0 175.8
07:45 16.6 83.0 1034.3 2.4 NE 8.8 NE 0.0 178.1
07:50 16.8 82.5 1034.6 2.1 ENE 6.1 E 0.0 183.5
07:55 17.2 81.4 1034.7 3.0 NE 8.8 NE 0.0 348.3
08:00 17.2 81.0 1035.0 3.9 NE 6.1 NE 0.0 381.0
08:05 17.6 80.0 1035.2 2.7 ENE 6.1 E 0.0 412.5
08:10 17.9 78.4 1035.2 3.9 NE 6.1 ENE 0.0 406.8
08:15 18.2 77.7 1035.1 3.2 ENE 8.8 NE 0.0 365.9
08:20 18.3 77.4 1035.3 2.7 NE 8.8 ENE 0.0 306.5
08:25 18.2 77.5 1035.4 2.6 NE 6.1 NNE 0.0 393.5
08:30 18.7 76.4 1035.5 0.5 ENE 6.1 E 0.0 308.5
08:35 19.2 75.0 1035.6 1.4 E 6.1 ENE 0.0 431.4
08:40 19.4 73.8 1035.4 1.9 E 6.1 ENE 0.0 429.1
08:45 19.6 73.4 1035.3 1.6 E 6.1 E 0.0 436.9
08:50 19.9 72.4 1035.2 3.4 E 8.8 ESE 0.0 501.9
08:55 20.2 69.9 1035.1 2.3 E 6.1 E 0.0 521.1
09:00 20.5 69.5 1035.0 1.4 E 6.1 ESE 0.0 539.6
09:05 20.9 67.8 1035.0 0.5 ENE 6.1 ENE 0.0 537.3
09:10 21.4 67.2 1034.9 1.8 ESE 8.8 E 0.0 544.9
09:15 21.7 63.4 1034.7 2.0 ENE 8.8 ENE 0.0 557.2
09:20 21.8 63.1 1034.6 5.4 E 11.5 E 0.0 550.9
09:25 21.9 62.5 1034.6 5.0 E 14.2 ESE 0.0 570.0
09:30 22.1 60.3 1034.5 3.8 ESE 8.8 ESE 0.0 582.1
09:35 22.3 60.0 1034.5 2.5 SE 8.8 ESE 0.0 604.7
09:40 23.0 59.0 1034.5 2.3 SE 8.8 SE 0.0 616.8
09:45 23.4 57.5 1034.6 4.5 SSE 11.5 SE 0.0 645.2
09:50 23.6 56.0 1034.6 5.1 SE 11.5 SSE 0.0 686.1
09:55 23.6 54.0 1034.5 3.4 SE 8.8 E 0.0 702.2
10:00 23.7 53.5 1034.3 4.8 SE 14.2 SE 0.0 711.7
10:05 23.8 52.3 1034.1 5.5 ESE 14.2 SE 0.0 704.3
10:10 23.9 51.2 1033.8 5.5 SE 14.2 ESE 0.0 702.1
10:15 23.5 51.4 1033.6 4.5 S 14.2 SSW 0.0 687.7
10:20 23.9 51.6 1033.4 4.5 SE 16.9 ESE 0.0 678.0
10:25 24.2 51.0 1033.3 6.0 SE 14.2 SE 0.0 705.8
10:30 24.2 49.7 1033.2 5.2 SE 11.5 SSE 0.0 720.0
10:35 24.0 49.8 1033.0 7.5 ESE 14.2 SE 0.0 698.1
10:40 23.9 51.2 1033.1 6.7 SSE 16.9 S 0.0 704.9
10:45 24.0 52.0 1033.1 5.0 SSE 11.5 SSW 0.0 716.6
10:50 24.4 50.2 1033.1 7.0 SSE 16.9 SE 0.0 756.8
10:55 24.4 50.8 1033.0 7.5 SSE 16.9 ESE 0.0 778.4
11:00 24.7 50.3 1032.7 3.6 SSE 11.5 SSE 0.0 820.0
11:05 25.2 48.3 1032.5 5.4 ESE 16.9 SE 0.0 830.0
11:10 25.1 49.1 1032.4 7.0 SE 16.9 ESE 0.0 806.0
11:15 24.8 49.8 1032.1 7.0 SSE 14.2 S 0.0 820.0
11:20 24.7 49.8 1031.7 6.8 SSE 16.9 S 0.0 851.0
11:25 24.8 50.0 1031.5 7.6 S 19.6 SE 0.0 857.0
11:30 25.1 48.4 1031.6 7.1 SE 16.9 ENE 0.0 866.0
11:35 25.3 47.1 1031.5 6.9 ESE 14.2 ESE 0.0 693.7
11:40 25.1 49.0 1031.3 7.2 SE 16.9 SE 0.0 797.9
11:45 25.0 48.1 1031.1 8.6 SSE 16.9 SSE 0.0 832.0
11:50 24.9 48.8 1030.8 7.7 S 19.6 SSW 0.0 843.0
11:55 25.0 47.6 1030.7 6.5 SE 16.9 SE 0.0 785.8
12:00 25.0 47.4 1030.6 8.6 ESE 19.6 SE 0.0 806.0
12:05 25.0 47.5 1030.4 6.8 ESE 22.3 SSE 0.0 776.6
12:10 25.1 48.3 1030.1 8.5 SSE 16.9 SSW 0.0 812.0
12:15 25.2 48.2 1029.7 8.9 S 19.6 S 0.0 772.6
12:20 25.2 47.5 1029.5 5.1 SE 11.5 ESE 0.0 819.0
12:25 25.8 46.7 1029.3 7.2 SE 16.9 ENE 0.0 816.0
12:30 25.8 45.8 1029.1 5.8 SE 19.6 SE 0.0 824.0
12:35 25.9 45.1 1029.0 6.4 SE 22.3 SE 0.0 786.5
12:40 26.1 45.2 1028.7 5.6 SE 16.9 SSE 0.0 746.8
12:45 26.0 44.8 1028.6 7.8 SSE 16.9 SE 0.0 732.2
12:50 25.8 45.4 1028.4 6.4 SSE 14.2 SE 0.0 732.9
12:55 25.9 44.1 1028.3 7.3 SE 16.9 SSW 0.0 723.1
13:00 25.8 45.2 1028.1 7.0 SE 16.9 SE 0.0 707.6
13:05 26.0 45.1 1028.1 4.9 SE 16.9 ESE 0.0 491.0
13:10 25.9 45.1 1027.8 5.4 SSE 14.2 SSW 0.0 664.1
13:15 25.9 45.3 1027.6 6.3 SSE 14.2 ESE 0.0 708.3
13:20 25.7 44.7 1027.3 6.5 SE 14.2 SSE 0.0 692.8
13:25 25.7 44.6 1027.0 4.5 ESE 11.5 S 0.0 684.2
13:30 25.7 44.9 1026.7 4.8 SE 11.5 SSE 0.0 674.2
13:35 25.8 44.5 1026.4 5.8 SSE 16.9 S 0.0 635.3
13:40 25.9 44.0 1026.1 5.5 ESE 14.2 E 0.0 617.9
13:45 25.8 44.7 1026.1 6.8 SE 16.9 SE 0.0 615.5
13:50 25.8 43.8 1026.0 6.8 ESE 14.2 E 0.0 584.8
13:55 25.7 44.4 1025.9 6.0 ESE 11.5 E 0.0 601.9
14:00 25.8 42.5 1025.8 6.4 ESE 14.2 ENE 0.0 535.2
14:05 25.8 44.5 1025.9 7.3 SE 16.9 SE 0.0 579.6
14:10 25.5 44.6 1025.7 6.7 S 14.2 S 0.0 572.4
14:15 25.8 44.0 1025.6 6.3 S 14.2 SSW 0.0 564.3
14:20 25.7 43.7 1025.5 6.7 SSE 14.2 SSE 0.0 555.9
14:25 25.9 42.4 1025.2 5.5 ESE 11.5 SE 0.0 558.2
14:30 26.3 40.2 1024.6 4.1 ESE 14.2 E 0.0 565.4
14:35 26.1 40.8 1024.1 5.5 SE 14.2 SE 0.0 534.5
14:40 26.3 40.6 1023.8 5.0 SSE 14.2 E 0.0 503.1
14:45 26.1 40.1 1023.5 3.5 SE 8.8 E 0.0 486.7
14:50 26.1 40.5 1023.3 6.0 S 14.2 SSE 0.0 475.3
14:55 26.0 40.6 1023.1 5.4 S 11.5 S 0.0 438.1
15:00 25.9 40.1 1023.1 4.7 S 11.5 SSE 0.0 435.8
15:05 26.0 40.2 1023.0 7.2 SE 14.2 SE 0.0 425.3
15:10 25.9 40.3 1022.7 4.9 SSE 14.2 SE 0.0 423.5
15:15 25.9 39.3 1022.4 5.1 SSW 11.5 S 0.0 409.9
15:20 26.0 40.2 1022.7 4.8 SSE 11.5 ESE 0.0 397.1
15:25 26.0 40.8 1022.7 5.4 SSE 11.5 SW 0.0 379.7
15:30 26.0 41.9 1022.6 7.1 SSE 11.5 SSE 0.0 363.3
15:35 25.9 42.1 1022.5 6.2 S 14.2 SSE 0.0 351.1
15:40 25.8 42.8 1022.3 4.8 SSE 8.8 S 0.0 316.2
15:45 25.6 44.6 1022.7 4.9 S 11.5 SE 0.0 204.7
15:50 25.3 45.0 1022.8 5.6 S 14.2 SSE 0.0 216.9
15:55 25.0 45.5 1022.8 6.0 SSE 16.9 SSE 0.0 204.9
16:00 24.7 46.6 1022.8 5.2 S 11.5 SSW 0.0 92.1
16:05 24.3 48.5 1022.9 4.3 S 8.8 SSW 0.0 87.8
16:10 24.1 51.4 1023.0 4.3 SSW 8.8 SSW 0.0 134.2
16:15 24.0 50.5 1022.8 5.3 SSW 11.5 S 0.0 191.9
16:20 24.1 51.0 1022.5 5.5 SSW 11.5 SSW 0.0 216.8
Máxima 26.4 91.6 1035.6 8.9 S 22.3 SE 0.0 866.0
Mínima 14.4 39.3 1022.3
Total 0.0